Time;durP1;ratioP1;P1;durP2;ratioP2;P2;SDS_P1;SDS_P2;PMS_P1;PMS_P2;Temp;Humidity;BMP_temperature;BMP_pressure;BME280_temperature;BME280_humidity;BME280_pressure;Samples;Min_cycle;Max_cycle;Signal;HPM_P1;HPM_P2
2023/05/01 00:01:34;;;;;;;;;;;8.40;99.90;;;;;;5039030;28;19924;-68
2023/05/01 00:03:59;;;;;;;;;;;8.40;99.90;;;;;;5072861;28;19924;-68
2023/05/01 00:06:26;;;;;;;;;;;8.40;99.90;;;;;;5073334;28;19925;-68
2023/05/01 00:08:52;;;;;;;;;;;8.40;99.90;;;;;;5072428;28;19968;-68
2023/05/01 00:11:18;;;;;;;;;;;8.40;99.90;;;;;;5073404;28;19924;-69
2023/05/01 00:13:43;;;;;;;;;;;8.30;99.90;;;;;;5056077;28;19947;-68
2023/05/01 00:16:09;;;;;;;;;;;8.30;99.90;;;;;;5073433;28;19935;-68
2023/05/01 00:18:35;;;;;;;;;;;8.30;99.90;;;;;;5055333;28;20024;-68
2023/05/01 00:21:02;;;;;;;;;;;8.30;99.90;;;;;;5072201;28;19947;-69
2023/05/01 00:23:27;;;;;;;;;;;8.30;99.90;;;;;;5039003;28;19978;-69
2023/05/01 00:25:53;;;;;;;;;;;8.20;99.90;;;;;;5072408;28;19925;-69
2023/05/01 00:28:18;;;;;;;;;;;8.20;99.90;;;;;;5072914;28;19928;-69
2023/05/01 00:30:44;;;;;;;;;;;8.20;99.90;;;;;;5073336;28;19932;-69
2023/05/01 00:33:10;;;;;;;;;;;8.20;99.90;;;;;;5071933;28;20266;-69
2023/05/01 00:35:36;;;;;;;;;;;8.20;99.90;;;;;;5071579;28;20023;-69
2023/05/01 00:38:01;;;;;;;;;;;8.20;99.90;;;;;;5072120;28;20021;-67
2023/05/01 00:40:27;;;;;;;;;;;8.20;99.90;;;;;;5054914;28;19924;-68
2023/05/01 00:42:53;;;;;;;;;;;8.20;99.90;;;;;;5071516;28;19931;-69
2023/05/01 00:45:19;;;;;;;;;;;8.20;99.90;;;;;;5071698;28;19928;-68
2023/05/01 00:47:45;;;;;;;;;;;8.10;99.90;;;;;;5105728;28;19975;-68
2023/05/01 00:50:12;;;;;;;;;;;8.20;99.90;;;;;;5071948;28;20050;-67
2023/05/01 00:52:38;;;;;;;;;;;8.20;99.90;;;;;;5071372;28;20185;-69
2023/05/01 00:55:04;;;;;;;;;;;8.10;99.90;;;;;;5055039;28;19925;-69
2023/05/01 00:57:30;;;;;;;;;;;8.20;99.90;;;;;;5071281;28;19928;-69
2023/05/01 00:59:56;;;;;;;;;;;8.20;99.90;;;;;;5071700;28;20273;-68
2023/05/01 01:02:22;;;;;;;;;;;8.20;99.90;;;;;;5071291;28;19982;-69
2023/05/01 01:04:47;;;;;;;;;;;8.20;99.90;;;;;;5071507;28;19974;-69
2023/05/01 01:07:20;;;;;;;;;;;8.20;99.90;;;;;;5055081;28;20277;-68
2023/05/01 01:09:54;;;;;;;;;;;8.20;99.90;;;;;;5071113;28;20025;-68
2023/05/01 01:12:20;;;;;;;;;;;8.20;99.90;;;;;;5071433;28;19925;-69
2023/05/01 01:14:49;;;;;;;;;;;8.20;99.90;;;;;;5054711;28;20403;-68
2023/05/01 01:17:33;;;;;;;;;;;8.20;99.90;;;;;;5071192;28;19939;-68
2023/05/01 01:20:17;;;;;;;;;;;8.20;99.90;;;;;;5072406;28;19929;-68
2023/05/01 01:22:46;;;;;;;;;;;8.20;99.90;;;;;;5070835;28;19930;-68
2023/05/01 01:25:30;;;;;;;;;;;8.20;99.90;;;;;;5072372;28;20050;-68
2023/05/01 01:28:04;;;;;;;;;;;8.20;99.90;;;;;;5071293;28;19932;-68
2023/05/01 01:30:49;;;;;;;;;;;8.10;99.90;;;;;;5070275;28;19925;-68
2023/05/01 01:33:20;;;;;;;;;;;8.10;99.90;;;;;;5071203;28;20277;-68
2023/05/01 01:35:52;;;;;;;;;;;8.10;99.90;;;;;;5054180;28;20262;-68
2023/05/01 01:38:23;;;;;;;;;;;8.10;99.90;;;;;;5071188;28;19925;-68
2023/05/01 01:41:07;;;;;;;;;;;8.10;99.90;;;;;;5070580;28;20351;-69
2023/05/01 01:43:38;;;;;;;;;;;8.10;99.90;;;;;;5070981;28;20292;-69
2023/05/01 01:46:05;;;;;;;;;;;8.10;99.90;;;;;;5070673;28;20422;-69
2023/05/01 01:48:33;;;;;;;;;;;8.00;99.90;;;;;;5070950;28;19978;-68
2023/05/01 01:51:00;;;;;;;;;;;8.00;99.90;;;;;;5088242;28;20323;-68
2023/05/01 01:53:28;;;;;;;;;;;8.00;99.90;;;;;;5071845;28;19976;-69
2023/05/01 01:55:56;;;;;;;;;;;8.00;99.90;;;;;;5071465;28;19932;-68
2023/05/01 01:58:25;;;;;;;;;;;7.90;99.90;;;;;;5071133;28;20366;-68
2023/05/01 02:00:52;;;;;;;;;;;7.90;99.90;;;;;;5054483;28;19925;-68
2023/05/01 02:03:18;;;;;;;;;;;7.90;99.90;;;;;;5054409;28;20000;-68
2023/05/01 02:05:44;;;;;;;;;;;7.90;99.90;;;;;;5071534;28;19924;-68
2023/05/01 02:08:11;;;;;;;;;;;7.90;99.90;;;;;;5070688;28;19924;-68
2023/05/01 02:10:37;;;;;;;;;;;7.80;99.90;;;;;;5070584;28;19970;-68
2023/05/01 02:13:03;;;;;;;;;;;7.80;99.90;;;;;;5054079;28;19939;-68
2023/05/01 02:15:29;;;;;;;;;;;7.80;99.90;;;;;;5053792;28;19929;-68
2023/05/01 02:17:55;;;;;;;;;;;7.80;99.90;;;;;;5053974;28;19929;-68
2023/05/01 02:20:20;;;;;;;;;;;7.80;99.90;;;;;;5070729;28;19924;-67
2023/05/01 02:22:47;;;;;;;;;;;7.80;99.90;;;;;;5071563;28;19924;-68
2023/05/01 02:25:13;;;;;;;;;;;7.80;99.90;;;;;;5070698;28;19974;-67
2023/05/01 02:28:11;;;;;;;;;;;7.70;99.90;;;;;;5071807;28;19935;-69
2023/05/01 02:30:37;;;;;;;;;;;7.80;99.90;;;;;;5069884;28;20305;-68
2023/05/01 02:33:05;;;;;;;;;;;7.70;99.90;;;;;;5054120;28;19947;-68
2023/05/01 02:35:30;;;;;;;;;;;7.70;99.90;;;;;;5103874;28;19944;-69
2023/05/01 02:37:56;;;;;;;;;;;7.70;99.90;;;;;;5053940;28;19924;-68
2023/05/01 02:40:22;;;;;;;;;;;7.60;99.90;;;;;;5070558;28;19924;-68
2023/05/01 02:42:48;;;;;;;;;;;7.70;99.90;;;;;;5055328;28;19925;-68
2023/05/01 02:45:18;;;;;;;;;;;7.60;99.90;;;;;;5075195;28;19925;-68
2023/05/01 02:47:45;;;;;;;;;;;7.60;99.90;;;;;;5074839;28;19977;-69
2023/05/01 02:50:12;;;;;;;;;;;7.60;99.90;;;;;;5074387;28;19924;-68
2023/05/01 02:52:37;;;;;;;;;;;7.50;99.90;;;;;;5073748;28;19932;-68
2023/05/01 02:55:04;;;;;;;;;;;7.50;99.90;;;;;;5040913;28;19924;-68
2023/05/01 02:57:31;;;;;;;;;;;7.50;99.90;;;;;;5057359;28;19931;-69
2023/05/01 02:59:57;;;;;;;;;;;7.50;99.90;;;;;;5073792;28;20006;-69
2023/05/01 03:02:22;;;;;;;;;;;7.50;99.90;;;;;;5057539;28;19991;-69
2023/05/01 03:04:48;;;;;;;;;;;7.40;99.90;;;;;;5057191;28;20286;-69
2023/05/01 03:07:14;;;;;;;;;;;7.40;99.90;;;;;;5075014;28;19993;-69
2023/05/01 03:09:39;;;;;;;;;;;7.40;99.90;;;;;;5073285;28;19924;-70
2023/05/01 03:12:05;;;;;;;;;;;7.40;99.90;;;;;;5057344;28;19925;-69
2023/05/01 03:14:31;;;;;;;;;;;7.40;99.90;;;;;;5074920;28;19971;-69
2023/05/01 03:16:57;;;;;;;;;;;7.30;99.90;;;;;;5056750;28;19975;-69
2023/05/01 03:19:22;;;;;;;;;;;7.30;99.90;;;;;;5073824;28;19932;-69
2023/05/01 03:21:48;;;;;;;;;;;7.30;99.90;;;;;;5040237;28;19928;-69
2023/05/01 03:24:13;;;;;;;;;;;7.30;99.90;;;;;;5073490;28;19925;-69
2023/05/01 03:26:39;;;;;;;;;;;7.30;99.90;;;;;;5073206;28;19928;-69
2023/05/01 03:29:05;;;;;;;;;;;7.30;99.90;;;;;;5073615;28;19925;-69
2023/05/01 03:31:30;;;;;;;;;;;7.20;99.90;;;;;;5073575;28;19931;-68
2023/05/01 03:33:56;;;;;;;;;;;7.20;99.90;;;;;;5074302;28;19925;-69
2023/05/01 03:36:21;;;;;;;;;;;7.20;99.90;;;;;;5056602;28;20027;-69
2023/05/01 03:38:47;;;;;;;;;;;7.20;99.90;;;;;;5056282;28;19963;-67
2023/05/01 03:41:12;;;;;;;;;;;7.20;99.90;;;;;;5074349;28;19929;-67
2023/05/01 03:43:38;;;;;;;;;;;7.20;99.90;;;;;;5072671;28;19986;-68
2023/05/01 03:46:04;;;;;;;;;;;7.20;99.90;;;;;;5074276;28;19925;-68
2023/05/01 03:48:29;;;;;;;;;;;7.10;99.90;;;;;;5056499;28;19924;-68
2023/05/01 03:50:56;;;;;;;;;;;7.10;99.90;;;;;;5072443;28;20348;-68
2023/05/01 03:53:22;;;;;;;;;;;7.10;99.90;;;;;;5055895;28;19936;-68
2023/05/01 03:55:47;;;;;;;;;;;7.10;99.90;;;;;;5072468;28;20324;-68
2023/05/01 03:58:13;;;;;;;;;;;7.10;99.90;;;;;;5073943;28;19925;-68
2023/05/01 04:00:38;;;;;;;;;;;7.10;99.90;;;;;;5072338;28;20352;-68
2023/05/01 04:03:04;;;;;;;;;;;7.10;99.90;;;;;;5073207;28;19925;-67
2023/05/01 04:05:30;;;;;;;;;;;7.10;99.90;;;;;;5072816;28;19928;-68
2023/05/01 04:07:56;;;;;;;;;;;7.10;99.90;;;;;;5073403;28;20399;-68
2023/05/01 04:10:22;;;;;;;;;;;7.10;99.90;;;;;;5056201;28;19924;-68
2023/05/01 04:12:47;;;;;;;;;;;7.00;99.90;;;;;;5072326;28;20539;-68
2023/05/01 04:15:13;;;;;;;;;;;7.00;99.90;;;;;;5106415;28;19928;-68
2023/05/01 04:17:39;;;;;;;;;;;7.00;99.90;;;;;;5072708;28;19928;-69
2023/05/01 04:20:05;;;;;;;;;;;7.00;99.90;;;;;;5055626;28;19932;-67
2023/05/01 04:22:31;;;;;;;;;;;7.00;99.90;;;;;;5055892;28;19924;-68
2023/05/01 04:24:57;;;;;;;;;;;7.00;99.90;;;;;;5073368;28;19931;-68
2023/05/01 04:27:22;;;;;;;;;;;7.00;99.90;;;;;;5072149;28;19924;-68
2023/05/01 04:29:48;;;;;;;;;;;7.00;99.90;;;;;;5071851;28;19983;-68
2023/05/01 04:32:14;;;;;;;;;;;7.00;99.90;;;;;;5073042;28;19972;-68
2023/05/01 04:34:39;;;;;;;;;;;7.10;99.90;;;;;;5072305;28;19928;-68
2023/05/01 04:37:07;;;;;;;;;;;7.10;99.90;;;;;;5071631;28;20378;-69
2023/05/01 04:39:33;;;;;;;;;;;7.10;99.90;;;;;;5072359;28;19931;-68
2023/05/01 04:41:59;;;;;;;;;;;7.10;99.90;;;;;;5054746;28;19925;-69
2023/05/01 04:44:24;;;;;;;;;;;7.20;99.90;;;;;;5055213;28;19950;-69
2023/05/01 04:46:50;;;;;;;;;;;7.20;99.90;;;;;;5071501;28;19924;-67
2023/05/01 04:49:15;;;;;;;;;;;7.30;99.90;;;;;;5072066;28;19925;-67
2023/05/01 04:51:41;;;;;;;;;;;7.30;99.90;;;;;;5072901;28;19925;-68
2023/05/01 04:54:07;;;;;;;;;;;7.30;99.90;;;;;;5038317;28;19924;-68
2023/05/01 04:56:33;;;;;;;;;;;7.30;99.90;;;;;;5071499;28;19970;-68
2023/05/01 04:58:58;;;;;;;;;;;7.40;99.90;;;;;;5071297;28;19959;-68
2023/05/01 05:01:24;;;;;;;;;;;7.50;99.90;;;;;;5071694;28;19931;-68
2023/05/01 05:03:49;;;;;;;;;;;7.60;99.90;;;;;;5054628;28;20281;-67
2023/05/01 05:06:15;;;;;;;;;;;7.60;99.90;;;;;;5070959;28;19987;-68
2023/05/01 05:08:41;;;;;;;;;;;7.70;99.90;;;;;;5055158;28;20000;-68
2023/05/01 05:11:06;;;;;;;;;;;7.80;99.90;;;;;;5071420;28;19925;-68
2023/05/01 05:13:32;;;;;;;;;;;8.00;99.90;;;;;;5055054;28;19928;-67
2023/05/01 05:15:58;;;;;;;;;;;8.30;99.90;;;;;;5070966;28;20385;-69
2023/05/01 05:18:23;;;;;;;;;;;8.50;99.90;;;;;;5071140;28;19925;-68
2023/05/01 05:20:49;;;;;;;;;;;8.70;99.90;;;;;;5071120;28;19970;-68
2023/05/01 05:23:14;;;;;;;;;;;8.90;99.90;;;;;;5054176;28;20292;-70
2023/05/01 05:25:40;;;;;;;;;;;9.10;99.90;;;;;;5037950;28;19932;-68
2023/05/01 05:28:06;;;;;;;;;;;9.30;99.90;;;;;;5054473;28;20308;-68
2023/05/01 05:30:31;;;;;;;;;;;9.30;99.90;;;;;;5071214;28;19925;-68
2023/05/01 05:32:57;;;;;;;;;;;9.30;99.90;;;;;;5054226;28;19924;-67
2023/05/01 05:35:22;;;;;;;;;;;9.40;99.90;;;;;;5070996;28;19925;-68
2023/05/01 05:37:48;;;;;;;;;;;9.50;99.90;;;;;;5071493;28;20066;-67
2023/05/01 05:40:14;;;;;;;;;;;9.80;99.90;;;;;;5070807;28;19925;-68
2023/05/01 05:42:40;;;;;;;;;;;10.00;99.90;;;;;;5072245;28;20007;-67
2023/05/01 05:45:06;;;;;;;;;;;10.20;99.90;;;;;;5071872;28;20057;-67
2023/05/01 05:47:31;;;;;;;;;;;10.40;99.90;;;;;;5071315;28;19925;-67
2023/05/01 05:49:57;;;;;;;;;;;10.80;99.90;;;;;;5053952;28;19976;-66
2023/05/01 05:52:22;;;;;;;;;;;11.00;99.90;;;;;;5072242;28;19925;-67
2023/05/01 05:54:48;;;;;;;;;;;11.10;99.90;;;;;;5072178;28;19928;-68
2023/05/01 05:57:14;;;;;;;;;;;11.10;99.90;;;;;;5037248;28;19947;-68
2023/05/01 05:59:39;;;;;;;;;;;11.00;99.90;;;;;;5072157;28;19931;-68
2023/05/01 06:02:06;;;;;;;;;;;11.10;99.90;;;;;;5054108;28;20356;-67
2023/05/01 06:04:32;;;;;;;;;;;11.10;99.90;;;;;;5070816;28;19924;-67
2023/05/01 06:06:57;;;;;;;;;;;11.10;99.90;;;;;;5071547;28;19932;-68
2023/05/01 06:09:23;;;;;;;;;;;11.10;99.90;;;;;;5037665;28;19924;-67
2023/05/01 06:11:49;;;;;;;;;;;11.20;99.90;;;;;;5070642;28;19931;-68
2023/05/01 06:14:15;;;;;;;;;;;11.40;99.90;;;;;;5071665;28;19925;-66
2023/05/01 06:16:41;;;;;;;;;;;11.80;99.90;;;;;;5054483;28;20285;-68
2023/05/01 06:19:09;;;;;;;;;;;12.30;99.90;;;;;;5074244;28;19924;-67
2023/05/01 06:21:34;;;;;;;;;;;12.60;99.90;;;;;;5074902;28;20015;-67
2023/05/01 06:24:00;;;;;;;;;;;13.00;99.90;;;;;;5074234;28;19978;-67
2023/05/01 06:26:26;;;;;;;;;;;13.40;99.90;;;;;;5057944;28;20007;-67
2023/05/01 06:28:53;;;;;;;;;;;13.90;99.90;;;;;;5074588;28;20015;-66
2023/05/01 06:31:19;;;;;;;;;;;14.30;99.90;;;;;;5075109;28;20023;-67
2023/05/01 06:33:44;;;;;;;;;;;14.60;99.90;;;;;;5074636;28;19979;-67
2023/05/01 06:36:10;;;;;;;;;;;14.90;99.90;;;;;;5073943;28;19976;-67
2023/05/01 06:38:36;;;;;;;;;;;15.10;99.90;;;;;;5057433;28;19931;-66
2023/05/01 06:41:03;;;;;;;;;;;15.30;99.90;;;;;;5074124;28;20273;-66
2023/05/01 06:43:29;;;;;;;;;;;15.40;99.90;;;;;;5073716;28;19928;-67
2023/05/01 06:45:55;;;;;;;;;;;15.80;99.90;;;;;;5074298;28;19925;-66
2023/05/01 06:48:21;;;;;;;;;;;16.20;99.90;;;;;;5073686;28;19931;-66
2023/05/01 06:50:47;;;;;;;;;;;16.50;99.90;;;;;;5073980;28;19924;-67
2023/05/01 06:53:12;;;;;;;;;;;16.90;99.90;;;;;;5073612;28;19924;-67
2023/05/01 06:55:38;;;;;;;;;;;17.10;99.90;;;;;;5057349;28;20411;-67
2023/05/01 06:58:04;;;;;;;;;;;17.30;99.90;;;;;;5057145;28;19925;-68
2023/05/01 07:00:29;;;;;;;;;;;17.60;99.90;;;;;;5056937;28;19925;-67
2023/05/01 07:02:55;;;;;;;;;;;17.70;99.90;;;;;;5075049;28;19924;-68
2023/05/01 07:05:21;;;;;;;;;;;18.10;99.90;;;;;;5073485;28;19925;-66
2023/05/01 07:07:48;;;;;;;;;;;18.20;99.90;;;;;;5073927;28;19924;-67
2023/05/01 07:10:14;;;;;;;;;;;17.90;98.90;;;;;;5056900;28;20373;-67
2023/05/01 07:12:39;;;;;;;;;;;18.10;99.00;;;;;;5107730;28;20377;-67
2023/05/01 07:15:05;;;;;;;;;;;18.30;99.20;;;;;;5074614;28;19932;-67
2023/05/01 07:17:31;;;;;;;;;;;18.10;99.60;;;;;;5073419;28;19977;-66
2023/05/01 07:19:57;;;;;;;;;;;18.10;99.00;;;;;;5056981;28;19979;-66
2023/05/01 07:22:23;;;;;;;;;;;18.30;99.90;;;;;;5073463;28;20357;-67
2023/05/01 07:24:48;;;;;;;;;;;18.40;99.50;;;;;;5073892;28;19928;-67
2023/05/01 07:27:14;;;;;;;;;;;18.50;99.40;;;;;;5073143;28;19929;-67
2023/05/01 07:29:39;;;;;;;;;;;18.40;98.40;;;;;;5072389;28;19925;-67
2023/05/01 07:32:06;;;;;;;;;;;18.30;99.60;;;;;;5073337;28;19932;-68
2023/05/01 07:34:31;;;;;;;;;;;18.30;98.20;;;;;;5056897;28;19973;-67
2023/05/01 07:36:57;;;;;;;;;;;18.60;98.30;;;;;;5074394;28;19924;-67
2023/05/01 07:39:23;;;;;;;;;;;19.00;98.80;;;;;;5073254;28;19932;-67
2023/05/01 07:41:50;;;;;;;;;;;19.40;99.30;;;;;;5073226;28;20747;-67
2023/05/01 07:44:16;;;;;;;;;;;;;;;;;;5073085;28;20324;-67
2023/05/01 07:46:42;;;;;;;;;;;19.80;95.70;;;;;;5072920;28;20003;-68
2023/05/01 07:49:08;;;;;;;;;;;;;;;;;;5056101;28;19924;-68
2023/05/01 07:51:33;;;;;;;;;;;20.90;97.20;;;;;;5074091;28;20011;-67
2023/05/01 07:54:03;;;;;;;;;;;21.80;94.60;;;;;;5056427;28;19925;-67
2023/05/01 07:56:29;;;;;;;;;;;22.20;94.50;;;;;;5073888;28;19940;-68
2023/05/01 07:58:55;;;;;;;;;;;22.20;91.30;;;;;;5073114;28;19981;-68
2023/05/01 08:01:20;;;;;;;;;;;22.80;92.00;;;;;;5073743;28;19924;-68
2023/05/01 08:03:46;;;;;;;;;;;23.20;92.40;;;;;;5074106;28;20378;-67
2023/05/01 08:06:11;;;;;;;;;;;23.70;92.40;;;;;;5072475;28;19925;-68
2023/05/01 08:08:37;;;;;;;;;;;24.00;90.00;;;;;;5056120;28;19932;-68
2023/05/01 08:11:03;;;;;;;;;;;24.00;90.70;;;;;;5056225;28;20019;-68
2023/05/01 08:13:28;;;;;;;;;;;24.00;90.50;;;;;;5073873;28;19933;-67
2023/05/01 08:15:54;;;;;;;;;;;23.90;86.30;;;;;;5072817;28;19924;-67
2023/05/01 08:18:19;;;;;;;;;;;23.60;84.90;;;;;;5072332;28;20211;-67
2023/05/01 08:20:48;;;;;;;;;;;23.40;88.20;;;;;;5072989;28;19929;-68
2023/05/01 08:23:17;;;;;;;;;;;23.30;83.60;;;;;;5072337;28;20345;-66
2023/05/01 08:25:49;;;;;;;;;;;23.50;82.90;;;;;;5072347;28;20349;-66
2023/05/01 08:28:15;;;;;;;;;;;23.70;86.80;;;;;;5072191;28;20262;-66
2023/05/01 08:30:41;;;;;;;;;;;23.70;82.60;;;;;;5073292;28;19931;-66
2023/05/01 08:33:06;;;;;;;;;;;23.80;84.70;;;;;;5072297;28;19924;-66
2023/05/01 08:35:32;;;;;;;;;;;23.90;80.60;;;;;;5072928;28;19936;-66
2023/05/01 08:37:58;;;;;;;;;;;24.20;81.00;;;;;;5073360;28;19975;-66
2023/05/01 08:40:24;;;;;;;;;;;24.50;79.10;;;;;;5072691;28;19924;-66
2023/05/01 08:42:50;;;;;;;;;;;24.50;81.00;;;;;;5072983;28;20377;-66
2023/05/01 08:45:17;;;;;;;;;;;24.80;83.80;;;;;;5055276;28;19924;-67
2023/05/01 08:47:43;;;;;;;;;;;25.10;81.90;;;;;;5071781;28;19970;-67
2023/05/01 08:50:10;;;;;;;;;;;25.40;81.70;;;;;;5072083;28;20065;-66
2023/05/01 08:52:39;;;;;;;;;;;25.60;77.20;;;;;;5054750;28;19925;-67
2023/05/01 08:55:07;;;;;;;;;;;25.60;77.90;;;;;;5055285;28;19958;-67
2023/05/01 08:57:33;;;;;;;;;;;25.60;75.90;;;;;;5088024;28;20301;-67
2023/05/01 08:59:59;;;;;;;;;;;25.60;77.10;;;;;;5072966;28;19935;-67
2023/05/01 09:02:26;;;;;;;;;;;25.70;76.60;;;;;;5054975;28;19970;-67
2023/05/01 09:04:52;;;;;;;;;;;25.60;75.40;;;;;;5071782;28;19924;-67
2023/05/01 09:07:17;;;;;;;;;;;25.20;75.60;;;;;;5071480;28;19925;-68
2023/05/01 09:09:43;;;;;;;;;;;24.70;75.50;;;;;;5071858;28;19928;-67
2023/05/01 09:12:20;;;;;;;;;;;24.70;75.30;;;;;;5072780;28;20019;-67
2023/05/01 09:14:46;;;;;;;;;;;24.70;75.00;;;;;;5072805;28;19946;-67
2023/05/01 09:17:12;;;;;;;;;;;24.80;75.60;;;;;;5054887;28;19924;-67
2023/05/01 09:19:39;;;;;;;;;;;24.90;75.60;;;;;;5071664;28;19925;-67
2023/05/01 09:22:05;;;;;;;;;;;24.80;75.50;;;;;;5072869;28;19924;-67
2023/05/01 09:24:32;;;;;;;;;;;24.20;75.30;;;;;;5071183;28;19924;-67
2023/05/01 09:26:58;;;;;;;;;;;23.50;76.40;;;;;;5071609;28;20029;-67
2023/05/01 09:29:36;;;;;;;;;;;23.50;76.70;;;;;;5071069;28;20031;-67
2023/05/01 09:32:21;;;;;;;;;;;23.70;78.20;;;;;;5054832;28;19924;-67
2023/05/01 09:34:48;;;;;;;;;;;24.10;78.20;;;;;;5071446;28;19931;-67
2023/05/01 09:37:28;;;;;;;;;;;23.90;76.30;;;;;;5071146;28;19931;-67
2023/05/01 09:40:10;;;;;;;;;;;23.50;76.90;;;;;;5071224;28;19931;-67
2023/05/01 09:42:37;;;;;;;;;;;22.80;77.60;;;;;;5072943;28;20258;-66
2023/05/01 09:45:04;;;;;;;;;;;22.50;79.10;;;;;;5054398;28;19977;-67
2023/05/01 09:47:30;;;;;;;;;;;22.40;78.30;;;;;;5071967;28;20343;-67
2023/05/01 09:49:56;;;;;;;;;;;22.30;79.40;;;;;;5072245;28;19925;-69
2023/05/01 09:52:25;;;;;;;;;;;22.00;79.10;;;;;;5071625;28;19932;-66
2023/05/01 09:55:10;;;;;;;;;;;21.40;79.70;;;;;;5054373;28;19963;-67
2023/05/01 09:57:37;;;;;;;;;;;21.40;80.00;;;;;;5070478;28;19924;-66
2023/05/01 10:00:09;;;;;;;;;;;21.30;80.40;;;;;;5072069;28;19924;-66
2023/05/01 10:02:34;;;;;;;;;;;21.40;79.20;;;;;;5071902;28;19924;-66
2023/05/01 10:05:00;;;;;;;;;;;21.80;79.50;;;;;;5071079;28;20365;-66
2023/05/01 10:07:29;;;;;;;;;;;22.00;77.50;;;;;;5070505;28;20351;-66
2023/05/01 10:09:54;;;;;;;;;;;21.90;78.50;;;;;;5070568;28;20370;-66
2023/05/01 10:12:27;;;;;;;;;;;21.90;79.20;;;;;;5070949;28;19925;-66
2023/05/01 10:14:53;;;;;;;;;;;21.60;78.60;;;;;;5072188;28;19954;-66
2023/05/01 10:17:19;;;;;;;;;;;21.40;80.50;;;;;;5071964;28;19928;-66
2023/05/01 10:19:46;;;;;;;;;;;21.30;81.00;;;;;;5071886;28;20000;-67
2023/05/01 10:22:11;;;;;;;;;;;21.20;81.40;;;;;;5072101;28;19935;-66
2023/05/01 10:24:38;;;;;;;;;;;21.20;82.00;;;;;;5071500;28;19991;-66
2023/05/01 10:27:05;;;;;;;;;;;21.20;81.10;;;;;;5054176;28;19924;-66
2023/05/01 10:29:33;;;;;;;;;;;21.10;81.70;;;;;;5070201;28;20018;-66
2023/05/01 10:31:59;;;;;;;;;;;20.90;83.20;;;;;;5070496;28;19943;-66
2023/05/01 10:34:25;;;;;;;;;;;20.70;84.10;;;;;;5054060;28;19925;-66
2023/05/01 10:36:54;;;;;;;;;;;20.30;83.70;;;;;;5053584;28;19978;-66
2023/05/01 10:39:33;;;;;;;;;;;20.20;85.20;;;;;;5071746;28;20305;-66
2023/05/01 10:42:00;;;;;;;;;;;20.30;85.90;;;;;;5053685;28;19932;-67
2023/05/01 10:44:26;;;;;;;;;;;20.30;84.50;;;;;;5070766;28;19931;-66
2023/05/01 10:46:52;;;;;;;;;;;20.40;85.00;;;;;;5070345;28;19925;-66
2023/05/01 10:49:18;;;;;;;;;;;20.20;85.00;;;;;;5071527;28;19925;-66
2023/05/01 10:51:59;;;;;;;;;;;20.20;84.60;;;;;;5070285;28;20366;-65
2023/05/01 10:54:29;;;;;;;;;;;20.30;85.80;;;;;;5070611;28;19947;-66
2023/05/01 10:56:57;;;;;;;;;;;20.60;86.00;;;;;;5069987;28;20281;-66
2023/05/01 10:59:23;;;;;;;;;;;20.80;85.50;;;;;;5071535;28;20010;-66
2023/05/01 11:01:52;;;;;;;;;;;21.10;86.10;;;;;;5070328;28;20023;-66
2023/05/01 11:04:20;;;;;;;;;;;21.10;84.60;;;;;;5072124;28;19932;-67
2023/05/01 11:07:06;;;;;;;;;;;21.10;85.30;;;;;;5074989;28;20277;-67
2023/05/01 11:09:41;;;;;;;;;;;21.10;85.20;;;;;;5074379;28;19924;-67
2023/05/01 11:12:07;;;;;;;;;;;21.00;85.00;;;;;;5073994;28;20011;-65
2023/05/01 11:14:51;;;;;;;;;;;21.10;85.40;;;;;;5075256;28;19928;-68
2023/05/01 11:17:36;;;;;;;;;;;21.10;85.70;;;;;;5073550;28;19925;-67
2023/05/01 11:20:02;;;;;;;;;;;21.00;86.50;;;;;;5073331;28;19925;-66
2023/05/01 11:22:28;;;;;;;;;;;21.00;85.90;;;;;;5074047;28;20380;-66
2023/05/01 11:24:54;;;;;;;;;;;20.70;86.40;;;;;;5057119;28;20289;-67
2023/05/01 11:27:20;;;;;;;;;;;20.50;86.70;;;;;;5073767;28;20403;-66
2023/05/01 11:29:48;;;;;;;;;;;20.30;86.10;;;;;;5074683;28;19932;-67
2023/05/01 11:32:17;;;;;;;;;;;20.20;88.90;;;;;;5074863;28;19924;-67
2023/05/01 11:34:43;;;;;;;;;;;20.10;87.90;;;;;;5074351;28;19924;-67
2023/05/01 11:37:08;;;;;;;;;;;20.10;87.40;;;;;;5073285;28;20389;-67
2023/05/01 11:39:34;;;;;;;;;;;20.00;88.20;;;;;;5073261;28;20293;-67
2023/05/01 11:42:09;;;;;;;;;;;19.90;87.90;;;;;;5072903;28;19974;-67
2023/05/01 11:44:36;;;;;;;;;;;19.80;87.80;;;;;;5074445;28;20011;-67
2023/05/01 11:47:01;;;;;;;;;;;19.80;89.90;;;;;;5074111;28;19924;-67
2023/05/01 11:49:27;;;;;;;;;;;19.80;89.50;;;;;;5073140;28;19931;-67
2023/05/01 11:51:56;;;;;;;;;;;19.90;88.40;;;;;;5072856;28;19939;-68
2023/05/01 11:54:22;;;;;;;;;;;20.00;86.70;;;;;;5074262;28;20128;-67
2023/05/01 11:56:56;;;;;;;;;;;19.90;87.60;;;;;;5072356;28;20040;-67
2023/05/01 11:59:21;;;;;;;;;;;19.80;87.90;;;;;;5073268;28;19931;-67
2023/05/01 12:01:47;;;;;;;;;;;;;;;;;;5073768;28;20006;-67
2023/05/01 12:04:13;;;;;;;;;;;;;;;;;;5056217;28;19977;-65
2023/05/01 12:06:42;;;;;;;;;;;;;;;;;;5073017;28;19977;-67
2023/05/01 12:09:08;;;;;;;;;;;;;;;;;;5072955;28;20007;-67
2023/05/01 12:11:34;;;;;;;;;;;;;;;;;;5073867;28;19931;-67
2023/05/01 12:14:00;;;;;;;;;;;;;;;;;;5072207;28;20035;-66
2023/05/01 12:16:27;;;;;;;;;;;;;;;;;;5072244;28;19925;-66
2023/05/01 12:18:53;;;;;;;;;;;;;;;;;;5072132;28;20392;-66
2023/05/01 12:21:20;;;;;;;;;;;;;;;;;;5073450;28;20019;-66
2023/05/01 12:23:46;;;;;;;;;;;;;;;;;;5073263;28;19924;-66
2023/05/01 12:26:12;;;;;;;;;;;;;;;;;;5072626;28;19931;-66
2023/05/01 12:28:38;;;;;;;;;;;;;;;;;;5072455;28;20328;-66
2023/05/01 12:31:04;;;;;;;;;;;;;;;;;;5073276;28;19924;-67
2023/05/01 12:33:30;;;;;;;;;;;;;;;;;;5072152;28;20219;-67
2023/05/01 12:35:56;;;;;;;;;;;;;;;;;;5088947;28;19955;-67
2023/05/01 12:38:22;;;;;;;;;;;;;;;;;;5072069;28;20391;-67
2023/05/01 12:40:48;;;;;;;;;;;;;;;;;;5071939;28;19925;-67
2023/05/01 12:43:15;;;;;;;;;;;;;;;;;;5071293;28;20274;-67
2023/05/01 12:45:41;;;;;;;;;;;;;;;;;;5072064;28;20011;-67
2023/05/01 12:48:07;;;;;;;;;;;;;;;;;;5071934;28;19974;-67
2023/05/01 12:50:36;;;;;;;;;;;19.90;88.60;;;;;;5073173;28;20261;-67
2023/05/01 12:53:02;;;;;;;;;;;20.00;89.30;;;;;;5071824;28;19932;-67
2023/05/01 12:55:27;;;;;;;;;;;19.90;87.20;;;;;;5055135;28;19948;-67
2023/05/01 12:57:53;;;;;;;;;;;19.80;88.50;;;;;;5072703;28;19930;-67
2023/05/01 13:00:19;;;;;;;;;;;19.80;88.80;;;;;;5055467;28;20023;-67
2023/05/01 13:02:45;;;;;;;;;;;19.80;88.50;;;;;;5072923;28;20326;-67
2023/05/01 13:05:11;;;;;;;;;;;19.90;88.50;;;;;;5072414;28;20390;-67
2023/05/01 13:07:37;;;;;;;;;;;20.00;88.60;;;;;;5071607;28;19924;-67
2023/05/01 13:10:04;;;;;;;;;;;20.00;88.50;;;;;;5071477;28;20015;-67
2023/05/01 13:12:30;;;;;;;;;;;20.00;88.70;;;;;;5071743;28;20301;-67
2023/05/01 13:14:56;;;;;;;;;;;19.90;88.20;;;;;;5071911;28;19947;-68
2023/05/01 13:17:24;;;;;;;;;;;19.80;88.90;;;;;;5071264;28;20042;-67
2023/05/01 13:19:54;;;;;;;;;;;19.90;89.40;;;;;;5071321;28;19924;-68
2023/05/01 13:22:32;;;;;;;;;;;20.10;88.70;;;;;;5071681;28;19925;-67
2023/05/01 13:24:58;;;;;;;;;;;19.90;89.50;;;;;;5071396;28;19968;-67
2023/05/01 13:27:23;;;;;;;;;;;19.80;90.60;;;;;;5070736;28;19924;-67
2023/05/01 13:29:59;;;;;;;;;;;19.60;91.50;;;;;;5071693;28;19924;-67
2023/05/01 13:32:25;;;;;;;;;;;19.50;91.90;;;;;;5054863;28;19925;-67
2023/05/01 13:34:52;;;;;;;;;;;19.40;92.20;;;;;;5072512;28;19924;-66
2023/05/01 13:37:18;;;;;;;;;;;19.20;91.90;;;;;;5070956;28;19948;-67
2023/05/01 13:39:45;;;;;;;;;;;19.30;92.60;;;;;;5071308;28;20435;-67
2023/05/01 13:42:11;;;;;;;;;;;19.30;92.20;;;;;;5071104;28;20258;-67
2023/05/01 13:44:47;;;;;;;;;;;19.30;92.10;;;;;;5037399;28;19925;-67
2023/05/01 13:47:15;;;;;;;;;;;19.30;91.90;;;;;;5070705;28;19924;-67
2023/05/01 13:49:41;;;;;;;;;;;19.20;91.70;;;;;;5071134;28;19964;-67
2023/05/01 13:52:09;;;;;;;;;;;19.10;91.50;;;;;;5070936;28;19925;-67
2023/05/01 13:54:38;;;;;;;;;;;19.10;91.70;;;;;;5072240;28;19925;-67
2023/05/01 13:57:04;;;;;;;;;;;19.10;91.60;;;;;;5070309;28;20389;-67
2023/05/01 13:59:32;;;;;;;;;;;19.10;91.90;;;;;;5072143;28;19932;-67
2023/05/01 14:01:58;;;;;;;;;;;19.10;91.50;;;;;;5071983;28;20189;-68
2023/05/01 14:04:23;;;;;;;;;;;19.10;91.60;;;;;;5054334;28;19948;-68
2023/05/01 14:06:49;;;;;;;;;;;19.10;92.20;;;;;;5071078;28;19924;-67
2023/05/01 14:09:16;;;;;;;;;;;19.10;92.60;;;;;;5037492;28;19928;-67
2023/05/01 14:11:43;;;;;;;;;;;19.10;92.80;;;;;;5071049;28;20001;-66
2023/05/01 14:14:10;;;;;;;;;;;19.20;92.90;;;;;;5070548;28;19971;-68
2023/05/01 14:16:39;;;;;;;;;;;19.20;92.70;;;;;;5054120;28;19924;-68
2023/05/01 14:19:05;;;;;;;;;;;19.10;93.10;;;;;;5070617;28;19924;-67
2023/05/01 14:21:37;;;;;;;;;;;19.20;93.00;;;;;;5071942;28;20301;-67
2023/05/01 14:24:03;;;;;;;;;;;19.10;92.40;;;;;;5071634;28;19935;-67
2023/05/01 14:26:28;;;;;;;;;;;19.10;92.40;;;;;;5070597;28;20309;-67
2023/05/01 14:28:54;;;;;;;;;;;19.00;92.80;;;;;;5070538;28;20326;-67
2023/05/01 14:31:20;;;;;;;;;;;19.00;92.80;;;;;;5053750;28;20015;-67